Historyczne dane pomiarowe

Dodano dane terminowe – wersja testowa.

Dane z okresu 1951-2019

Wersja bazy: 1.34 [2019-03-16, lista zmian], aktualizacja planowana na 2019-04-15

Dane meteo z obszaru Polski uzyskane na podstawie danych udostępnionych przez Instytut Meteorologii i Gospodarki Wodnej – Państwowy Instytut Badawczy.

 

Wybierz Datę:    

       

TemperaturaWilgotnośćWiatrCiśnienieOpadyŚniegCzas trwania zjawisk
 Stacja t tx tn tng RH VA  wxwx mslp ppp RRR   cm mm wxwxwxwxwxwxwx
1959-10-10 6.5 12.0 0.1 -2.5 82.3- 0.0 0.7---- 0.0------------
1959-10-09 6.3 12.1 1.0 -1.9 80.3- 0.3 3.0---- 0.0------------
1959-10-08 9.5 16.0 2.9 0.1 63.8- 4.3 3.0---- 0.0------------
1959-10-07 8.4 15.2 -0.7 -4.0 63.8- 2.0 3.0---- 0.0------------
1959-10-06 4.7 11.4 -4.2 -8.9 62.8- 0.3 2.3---- 0.0------------
1959-10-05 2.8 7.7 -0.4 -2.3 64.3- 0.3 7.0---- 0.0------------
1959-10-04 6.1 14.3 4.1 5.2 79.3- 6.0 5.3---- 0.0------------
1959-10-03 14.2 19.3 6.5 0.6 53.0- 1.7 2.7---- 0.0------------
1959-10-02 11.3 16.4 7.2 5.1 73.0- 2.3 2.0---- 0.0------------
1959-10-01 7.5 13.6 -2.2 -5.5 69.0- 4.0 2.7---- 0.0------------
1959-09-30 3.2 8.3 0.0 2.1 83.8- 4.7 2.3---- 0.0------------
1959-09-29 5.4 7.4 1.4 -3.2 87.3- 7.7 3.3---- 0.1------------
1959-09-28 6.9 14.2 5.2 4.0 77.8- 6.0 6.0---- 0.0------------
1959-09-27 13.6 16.2 7.6 3.6 73.5- 6.3 2.7---- 0.0------------
1959-09-26 10.0 16.4 3.3 0.4 72.5- 0.7 3.0---- 0.0------------
1959-09-25 6.7 11.9 4.2 4.5 83.5- 3.7 3.3---- 0.0------------
1959-09-24 12.4 16.6 9.2 4.5 72.3- 7.0 3.0---- 0.5------------
1959-09-23 13.6 17.6 10.9 7.3 77.3- 5.0 4.3---- 0.0------------
1959-09-22 18.3 22.6 14.4 11.9 59.0- 7.3 6.7---- 0.0------------
1959-09-21 15.4 20.9 3.6 -0.1 59.0- 0.0 4.0---- 0.0------------
1959-09-20 10.7 14.6 4.8 0.1 72.0- 4.0 4.3---- 0.0------------
1959-09-19 8.7 15.6 1.1 -2.0 65.5- 2.0 2.7---- 0.0------------
1959-09-18 7.3 14.0 3.7 -1.3 65.0- 2.0 4.0---- 0.0------------
1959-09-17 7.8 14.4 5.8 5.6 69.3- 4.0 3.0---- 0.0------------
1959-09-16 16.0 21.0 9.4 6.4 57.8- 1.7 6.7---- 0.0------------
1959-09-15 12.3 17.6 4.9 2.4 68.0- 0.7 3.3---- 0.0------------
1959-09-14 11.5 18.0 9.4 11.2 78.3- 4.0 4.3---- 0.0------------
1959-09-13 18.6 23.9 10.3 5.6 57.3- 3.7 4.3---- 2.2------------
1959-09-12 13.9 21.6 8.3 5.3 76.0- 1.3 3.0---- 0.0------------
1959-09-11 13.8 19.2 7.3 3.6 77.5- 2.3 3.7---- 0.0------------
1959-09-10 12.9 19.2 4.7 2.0 77.3- 1.3 2.3---- 0.0------------
1959-09-09 11.7 16.0 8.7 3.3 86.8- 5.3 2.3---- 0.4------------
1959-09-08 12.0 17.4 3.8 0.0 78.5- 5.0 2.0---- 0.0------------
1959-09-07 10.5 16.1 7.2 5.6 88.8- 4.7 1.7---- 0.0------------
1959-09-06 11.1 15.6 3.7 0.0 76.0- 6.0 1.7---- 0.0------------
1959-09-05 11.5 16.9 5.0 0.9 70.3- 2.7 3.3---- 0.0------------
1959-09-04 12.2 16.1 6.7 2.0 74.3- 7.3 2.3---- 0.0------------
1959-09-03 11.5 17.9 3.6 -0.4 80.0- 1.3 1.7---- 0.0------------
1959-09-02 10.0 15.4 7.8 5.6 88.0- 4.0 3.3---- 0.0------------
1959-09-01 10.8 14.9 8.5 8.3 83.3- 7.0 3.7---- 0.6------------
1959-08-31 11.1 14.2 8.3 7.1 81.8- 7.3 3.3---- 4.0------------
1959-08-30 10.2 14.6 7.9 4.7 75.8- 5.3 3.0---- 0.0------------
1959-08-29 10.8 16.1 8.0 7.6 79.5- 5.3 3.3---- 1.4------------
1959-08-28 13.3 17.6 5.8 3.4 71.3- 3.7 4.7---- 0.7------------
1959-08-27 14.8 20.6 13.6 13.9 68.8- 4.0 4.7---- 0.0------------
1959-08-26 20.1 24.4 19.3 15.8 79.5- 7.0 5.3---- 0.0------------
1959-08-25 22.0 26.6 14.6 10.6 64.3- 1.7 5.0---- 0.0------------
1959-08-24 20.8 26.5 13.8 10.5 69.0- 1.7 1.7---- 0.0------------
1959-08-23 20.1 25.6 14.1 10.4 73.5- 1.7 4.0---- 0.0------------
1959-08-22 20.2 25.1 14.1 10.5 68.0- 0.7 4.0---- 0.0------------
1959-08-21 19.0 24.7 12.1 9.1 71.8- 1.7 3.7---- 0.0------------
1959-08-20 18.7 23.4 10.3 6.9 70.3- 1.0 4.7---- 0.0------------
1959-08-19 17.2 23.0 10.5 7.3 77.3- 2.3 3.0---- 0.8------------
1959-08-18 16.5 21.7 12.8 12.2 88.0- 5.0 1.3---- 1.9------------
1959-08-17 14.0 15.4 11.8 12.4 99.0- 8.0 3.7---- 3.8------------
1959-08-16 16.5 19.8 14.3 14.7 94.8- 7.7 2.3---- 21.2------------
1959-08-15 18.6 23.7 13.4 10.5 84.3- 5.3 2.7---- 0.0------------
1959-08-14 17.6 23.9 13.0 10.2 90.8- 6.7 3.0---- 12.1------------
1959-08-13 18.0 23.4 14.8 11.4 95.0- 7.3 1.0---- 2.9------------
1959-08-12 19.5 24.3 14.7 10.7 89.3- 4.7 3.7---- 2.0------------
726.2 ms

 

Źródłem pochodzenia danych jest Instytut Meteorologii i Gospodarki Wodnej – Państwowy Instytut Badawczy. Dane Instytutu Meteorologii i Gospodarki Wodnej – Państwowego Instytutu Badawczego zostały przetworzone.

Dane źródłowe można odnaleźć na stronie https://dane.imgw.pl